OH50 weather

Lindsey L.S. Airport
Circleville, Ohio, United States

Public forecast

Using degrees Fahrenheit for public forecast. Weather courtesy of forecast.io.

Closest aviation weather report (METAR) to Lindsey L.S. Airport

Closest report is Rickenbacker International Airport, 10.9 nm (20.1 km) NE. Retrieved 2020/06/01 02:55 UTC (28 minutes ago):

KLCK 010255Z AUTO 02006KT CLR 13/03 A3031 RMK AO2 T01250034

Closest aviation forecast (TAF) to Lindsey L.S. Airport

Closest forecast is Rickenbacker International Airport, 10.9 nm (20.1 km) NE. Retrieved 2020-06-01 00:42 UTC (3 hours ago):

TAF KLCK 312334Z 0100/0124 35007KT P6SM SCT250 FM010300 00000KT P6SM FEW250 FM011400 17005KT P6SM FEW250 FM012300 20006KT P6SM BKN150